GFA505 OBBI-OMDB
Flight info
| Callsign | GFA505 |
|---|---|
| Flight time | 0h 51m |
| Altitude | 25000 |
| Route | BHR345/30R BHR N697 SODAK P559 VUTEB VUTEB4D |
| Aircraft | A21N/M-VGDW/C |
Departure
| Time | 2026-04-24 23:39 |
|---|---|
| Airport | Bahrain International Airport (OBBI) |
Arrival
| Time | 2026-04-25 00:30 |
|---|---|
| Airport | Dubai International Airport (OMDB) |
| Time | Latitude | Longitude | Altitude | Speed | Heading |
|---|---|---|---|---|---|
| 2026-04-24 23:06 | 26.26688 | 50.63322 | 26 ft | 0 kts | 213° |
| 2026-04-24 23:25 | 26.26695 | 50.63326 | 26 ft | 2 kts | 209° |
| 2026-04-24 23:25 | 26.26707 | 50.63333 | 26 ft | 2 kts | 204° |
| 2026-04-24 23:25 | 26.26720 | 50.63339 | 26 ft | 2 kts | 195° |
| 2026-04-24 23:25 | 26.26733 | 50.63342 | 27 ft | 2 kts | 184° |
| 2026-04-24 23:26 | 26.26746 | 50.63341 | 27 ft | 2 kts | 169° |
| 2026-04-24 23:26 | 26.26759 | 50.63337 | 27 ft | 2 kts | 154° |
| 2026-04-24 23:26 | 26.26771 | 50.63329 | 27 ft | 2 kts | 142° |
| 2026-04-24 23:26 | 26.26781 | 50.63319 | 27 ft | 2 kts | 133° |
| 2026-04-24 23:27 | 26.26789 | 50.63308 | 27 ft | 2 kts | 128° |
| 2026-04-24 23:27 | 26.26797 | 50.63297 | 27 ft | 2 kts | 125° |
| 2026-04-24 23:27 | 26.26804 | 50.63286 | 27 ft | 2 kts | 124° |
| 2026-04-24 23:27 | 26.26809 | 50.63277 | 27 ft | 3 kts | 136° |
| 2026-04-24 23:28 | 26.26815 | 50.63271 | 26 ft | 0 kts | 130° |
| 2026-04-24 23:31 | 26.26808 | 50.63280 | 26 ft | 4 kts | 127° |
| 2026-04-24 23:31 | 26.26789 | 50.63317 | 26 ft | 8 kts | 98° |
| 2026-04-24 23:31 | 26.26820 | 50.63376 | 27 ft | 11 kts | 40° |
| 2026-04-24 23:31 | 26.26821 | 50.63464 | 24 ft | 15 kts | 119° |
| 2026-04-24 23:32 | 26.26757 | 50.63570 | 25 ft | 18 kts | 124° |
| 2026-04-24 23:32 | 26.26680 | 50.63699 | 26 ft | 22 kts | 122° |
| 2026-04-24 23:32 | 26.26594 | 50.63853 | 26 ft | 25 kts | 122° |
| 2026-04-24 23:32 | 26.26493 | 50.64029 | 29 ft | 28 kts | 122° |
| 2026-04-24 23:33 | 26.26380 | 50.64224 | 25 ft | 32 kts | 123° |
| 2026-04-24 23:33 | 26.26314 | 50.64339 | 25 ft | 26 kts | 123° |
| 2026-04-24 23:33 | 26.26217 | 50.64508 | 26 ft | 17 kts | 123° |
| 2026-04-24 23:33 | 26.26145 | 50.64631 | 27 ft | 21 kts | 123° |
| 2026-04-24 23:34 | 26.26073 | 50.64757 | 28 ft | 14 kts | 122° |
| 2026-04-24 23:34 | 26.26061 | 50.64776 | 27 ft | 0 kts | 123° |
| 2026-04-24 23:35 | 26.26060 | 50.64778 | 27 ft | 3 kts | 123° |
| 2026-04-24 23:35 | 26.26028 | 50.64834 | 26 ft | 11 kts | 121° |
| 2026-04-24 23:36 | 26.26023 | 50.64923 | 30 ft | 13 kts | 66° |
| 2026-04-24 23:36 | 26.26088 | 50.64991 | 24 ft | 14 kts | 19° |
| 2026-04-24 23:36 | 26.26171 | 50.64945 | 23 ft | 16 kts | 303° |
| 2026-04-24 23:36 | 26.26178 | 50.64933 | 24 ft | 0 kts | 303° |
| 2026-04-24 23:38 | 26.26202 | 50.64892 | 23 ft | 27 kts | 303° |
| 2026-04-24 23:38 | 26.26440 | 50.64478 | 19 ft | 96 kts | 303° |
| 2026-04-24 23:38 | 26.26906 | 50.63670 | 22 ft | 150 kts | 303° |
| 2026-04-24 23:38 | 26.27484 | 50.62648 | 493 ft | 153 kts | 302° |
| 2026-04-24 23:39 | 26.28034 | 50.61599 | 1058 ft | 161 kts | 306° |
| 2026-04-24 23:39 | 26.28920 | 50.60849 | 1565 ft | 165 kts | 342° |
| 2026-04-24 23:39 | 26.30051 | 50.60563 | 2193 ft | 167 kts | 348° |
| 2026-04-24 23:39 | 26.31202 | 50.60319 | 2893 ft | 169 kts | 348° |
| 2026-04-24 23:40 | 26.32380 | 50.60089 | 3685 ft | 174 kts | 348° |
| 2026-04-24 23:40 | 26.33601 | 50.59965 | 4403 ft | 183 kts | 8° |
| 2026-04-24 23:40 | 26.34681 | 50.60710 | 5094 ft | 194 kts | 52° |
| 2026-04-24 23:40 | 26.35248 | 50.62098 | 5826 ft | 200 kts | 69° |
| 2026-04-24 23:41 | 26.35937 | 50.63458 | 6598 ft | 203 kts | 49° |
| 2026-04-24 23:41 | 26.36903 | 50.64610 | 7375 ft | 205 kts | 44° |
| 2026-04-24 23:41 | 26.37925 | 50.65730 | 8171 ft | 207 kts | 44° |
| 2026-04-24 23:41 | 26.38962 | 50.66871 | 8984 ft | 211 kts | 44° |
| 2026-04-24 23:42 | 26.40020 | 50.68026 | 9816 ft | 214 kts | 45° |
| 2026-04-24 23:42 | 26.41115 | 50.69178 | 10564 ft | 219 kts | 35° |
| 2026-04-24 23:42 | 26.42440 | 50.70030 | 11321 ft | 222 kts | 29° |
| 2026-04-24 23:42 | 26.43727 | 50.71014 | 12095 ft | 226 kts | 39° |
| 2026-04-24 23:43 | 26.44921 | 50.72183 | 12868 ft | 230 kts | 43° |
| 2026-04-24 23:43 | 26.46095 | 50.73421 | 13636 ft | 235 kts | 44° |
| 2026-04-24 23:43 | 26.47266 | 50.74691 | 14315 ft | 241 kts | 45° |
| 2026-04-24 23:43 | 26.48476 | 50.76030 | 14761 ft | 245 kts | 45° |
| 2026-04-24 23:44 | 26.49683 | 50.77382 | 15306 ft | 247 kts | 45° |
| 2026-04-24 23:44 | 26.50895 | 50.78749 | 16031 ft | 248 kts | 45° |
| 2026-04-24 23:44 | 26.52113 | 50.80127 | 16737 ft | 250 kts | 46° |
| 2026-04-24 23:44 | 26.53340 | 50.81526 | 17426 ft | 253 kts | 45° |
| 2026-04-24 23:45 | 26.54591 | 50.82940 | 18094 ft | 256 kts | 45° |
| 2026-04-24 23:45 | 26.55854 | 50.84369 | 18674 ft | 259 kts | 45° |
| 2026-04-24 23:45 | 26.57115 | 50.85799 | 19220 ft | 262 kts | 45° |
| 2026-04-24 23:45 | 26.58398 | 50.87257 | 19755 ft | 264 kts | 45° |
| 2026-04-24 23:46 | 26.59689 | 50.88728 | 20288 ft | 266 kts | 44° |
| 2026-04-24 23:46 | 26.60994 | 50.90213 | 20907 ft | 268 kts | 44° |
| 2026-04-24 23:46 | 26.62307 | 50.91705 | 21557 ft | 270 kts | 44° |
| 2026-04-24 23:46 | 26.63631 | 50.93213 | 22165 ft | 273 kts | 44° |
| 2026-04-24 23:47 | 26.65000 | 50.94769 | 22344 ft | 297 kts | 44° |
| 2026-04-24 23:47 | 26.66560 | 50.96526 | 21355 ft | 329 kts | 44° |
| 2026-04-24 23:47 | 26.68216 | 50.98428 | 21010 ft | 357 kts | 45° |
| 2026-04-24 23:47 | 26.69934 | 51.00408 | 21992 ft | 349 kts | 44° |
| 2026-04-24 23:48 | 26.71588 | 51.02310 | 23156 ft | 342 kts | 44° |
| 2026-04-24 23:48 | 26.73158 | 51.04273 | 23991 ft | 337 kts | 51° |
| 2026-04-24 23:48 | 26.74554 | 51.06399 | 24460 ft | 339 kts | 52° |
| 2026-04-24 23:48 | 26.75828 | 51.08656 | 24711 ft | 348 kts | 64° |
| 2026-04-24 23:49 | 26.76547 | 51.11277 | 24845 ft | 359 kts | 86° |
| 2026-04-24 23:49 | 26.76379 | 51.14080 | 24908 ft | 368 kts | 108° |
| 2026-04-24 23:49 | 26.75501 | 51.16815 | 24950 ft | 381 kts | 116° |
| 2026-04-24 23:49 | 26.74448 | 51.19578 | 24955 ft | 399 kts | 116° |
| 2026-04-24 23:50 | 26.73374 | 51.22529 | 24951 ft | 418 kts | 114° |
| 2026-04-24 23:50 | 26.72318 | 51.25633 | 24944 ft | 436 kts | 113° |
| 2026-04-24 23:50 | 26.71615 | 51.27775 | 24934 ft | 447 kts | 112° |
| 2026-04-24 23:50 | 26.70167 | 51.32253 | 24933 ft | 468 kts | 112° |
| 2026-04-24 23:51 | 26.69431 | 51.34546 | 24929 ft | 477 kts | 112° |
| 2026-04-24 23:51 | 26.67920 | 51.39265 | 24926 ft | 494 kts | 112° |
| 2026-04-24 23:51 | 26.67130 | 51.41714 | 24924 ft | 496 kts | 112° |
| 2026-04-24 23:51 | 26.65575 | 51.46532 | 24914 ft | 497 kts | 112° |
| 2026-04-24 23:52 | 26.64778 | 51.48983 | 24906 ft | 496 kts | 112° |
| 2026-04-24 23:52 | 26.63602 | 51.52618 | 24904 ft | 496 kts | 112° |
| 2026-04-24 23:52 | 26.62445 | 51.56194 | 24904 ft | 497 kts | 112° |
| 2026-04-24 23:52 | 26.61269 | 51.59829 | 24900 ft | 497 kts | 112° |
| 2026-04-24 23:53 | 26.60099 | 51.63463 | 24897 ft | 497 kts | 112° |
| 2026-04-24 23:53 | 26.58934 | 51.67104 | 24896 ft | 497 kts | 112° |
| 2026-04-24 23:53 | 26.57772 | 51.70737 | 24897 ft | 497 kts | 112° |
| 2026-04-24 23:53 | 26.56597 | 51.74369 | 24894 ft | 497 kts | 112° |
| 2026-04-24 23:54 | 26.55415 | 51.78009 | 24891 ft | 497 kts | 112° |
| 2026-04-24 23:54 | 26.54235 | 51.81641 | 24893 ft | 497 kts | 112° |
| 2026-04-24 23:54 | 26.53072 | 51.85229 | 24891 ft | 497 kts | 112° |
| 2026-04-24 23:54 | 26.51893 | 51.88862 | 24890 ft | 497 kts | 112° |
| 2026-04-24 23:55 | 26.50690 | 51.92491 | 24890 ft | 497 kts | 112° |
| 2026-04-24 23:55 | 26.49483 | 51.96116 | 24888 ft | 497 kts | 112° |
| 2026-04-24 23:55 | 26.48283 | 51.99743 | 24886 ft | 497 kts | 112° |
| 2026-04-24 23:55 | 26.47082 | 52.03380 | 24882 ft | 497 kts | 112° |
| 2026-04-24 23:56 | 26.45887 | 52.06957 | 24885 ft | 497 kts | 112° |
| 2026-04-24 23:56 | 26.44680 | 52.10565 | 24879 ft | 497 kts | 112° |
| 2026-04-24 23:56 | 26.43467 | 52.14191 | 24881 ft | 497 kts | 112° |
| 2026-04-24 23:56 | 26.42257 | 52.17818 | 24879 ft | 497 kts | 112° |
| 2026-04-24 23:57 | 26.41061 | 52.21390 | 24873 ft | 497 kts | 112° |
| 2026-04-24 23:57 | 26.39854 | 52.25002 | 24873 ft | 498 kts | 112° |
| 2026-04-24 23:57 | 26.38640 | 52.28627 | 24874 ft | 498 kts | 112° |
| 2026-04-24 23:57 | 26.37423 | 52.32252 | 24874 ft | 498 kts | 112° |
| 2026-04-24 23:58 | 26.36207 | 52.35868 | 24875 ft | 499 kts | 113° |
| 2026-04-24 23:58 | 26.34935 | 52.39464 | 24872 ft | 498 kts | 115° |
| 2026-04-24 23:58 | 26.33577 | 52.43028 | 24870 ft | 498 kts | 115° |
| 2026-04-24 23:58 | 26.32219 | 52.46589 | 24871 ft | 498 kts | 115° |
| 2026-04-24 23:59 | 26.30851 | 52.50145 | 24872 ft | 498 kts | 115° |
| 2026-04-24 23:59 | 26.29480 | 52.53689 | 24870 ft | 498 kts | 115° |
| 2026-04-24 23:59 | 26.28117 | 52.57246 | 24871 ft | 498 kts | 115° |
| 2026-04-24 23:59 | 26.26759 | 52.60799 | 24869 ft | 498 kts | 115° |
| 2026-04-25 00:00 | 26.25406 | 52.64309 | 24871 ft | 498 kts | 115° |
| 2026-04-25 00:00 | 26.24036 | 52.67855 | 24869 ft | 498 kts | 115° |
| 2026-04-25 00:00 | 26.22674 | 52.71414 | 24865 ft | 498 kts | 115° |
| 2026-04-25 00:00 | 26.21309 | 52.74965 | 24860 ft | 498 kts | 115° |
| 2026-04-25 00:01 | 26.19941 | 52.78512 | 24860 ft | 498 kts | 115° |
| 2026-04-25 00:01 | 26.18592 | 52.82018 | 24861 ft | 498 kts | 115° |
| 2026-04-25 00:01 | 26.17234 | 52.85557 | 24862 ft | 497 kts | 115° |
| 2026-04-25 00:01 | 26.15879 | 52.89099 | 24866 ft | 497 kts | 115° |
| 2026-04-25 00:02 | 26.14523 | 52.92636 | 24858 ft | 497 kts | 115° |
| 2026-04-25 00:02 | 26.13163 | 52.96171 | 24859 ft | 497 kts | 115° |
| 2026-04-25 00:02 | 26.11803 | 52.99702 | 24860 ft | 497 kts | 115° |
| 2026-04-25 00:02 | 26.10437 | 53.03248 | 24857 ft | 497 kts | 115° |
| 2026-04-25 00:03 | 26.09114 | 53.06813 | 24859 ft | 497 kts | 114° |
| 2026-04-25 00:03 | 26.07798 | 53.10380 | 24861 ft | 497 kts | 114° |
| 2026-04-25 00:03 | 26.06484 | 53.13942 | 24860 ft | 497 kts | 114° |
| 2026-04-25 00:03 | 26.05180 | 53.17504 | 24857 ft | 497 kts | 114° |
| 2026-04-25 00:04 | 26.03876 | 53.21064 | 24855 ft | 497 kts | 114° |
| 2026-04-25 00:04 | 26.02579 | 53.24584 | 24857 ft | 497 kts | 114° |
| 2026-04-25 00:04 | 26.01265 | 53.28154 | 24857 ft | 497 kts | 114° |
| 2026-04-25 00:04 | 25.99951 | 53.31714 | 24854 ft | 497 kts | 114° |
| 2026-04-25 00:05 | 25.98635 | 53.35271 | 24852 ft | 497 kts | 114° |
| 2026-04-25 00:05 | 25.97337 | 53.38796 | 24861 ft | 497 kts | 114° |
| 2026-04-25 00:05 | 25.96017 | 53.42361 | 24861 ft | 497 kts | 114° |
| 2026-04-25 00:05 | 25.94697 | 53.45919 | 24856 ft | 497 kts | 114° |
| 2026-04-25 00:06 | 25.93383 | 53.49481 | 24858 ft | 498 kts | 114° |
| 2026-04-25 00:06 | 25.92142 | 53.53068 | 24857 ft | 498 kts | 113° |
| 2026-04-25 00:06 | 25.90903 | 53.56661 | 24854 ft | 498 kts | 112° |
| 2026-04-25 00:06 | 25.89667 | 53.60258 | 24854 ft | 498 kts | 112° |
| 2026-04-25 00:07 | 25.88446 | 53.63803 | 24846 ft | 497 kts | 112° |
| 2026-04-25 00:07 | 25.87211 | 53.67388 | 24848 ft | 497 kts | 112° |
| 2026-04-25 00:07 | 25.85972 | 53.70976 | 24851 ft | 497 kts | 112° |
| 2026-04-25 00:07 | 25.84736 | 53.74566 | 24850 ft | 496 kts | 112° |
| 2026-04-25 00:08 | 25.83496 | 53.78145 | 24853 ft | 496 kts | 113° |
| 2026-04-25 00:08 | 25.82253 | 53.81729 | 24846 ft | 496 kts | 112° |
| 2026-04-25 00:08 | 25.81025 | 53.85266 | 24846 ft | 496 kts | 113° |
| 2026-04-25 00:08 | 25.79771 | 53.88845 | 24847 ft | 496 kts | 113° |
| 2026-04-25 00:09 | 25.78523 | 53.92417 | 24850 ft | 496 kts | 113° |
| 2026-04-25 00:09 | 25.77276 | 53.96003 | 24846 ft | 496 kts | 113° |
| 2026-04-25 00:09 | 25.76032 | 53.99578 | 24848 ft | 496 kts | 113° |
| 2026-04-25 00:09 | 25.74871 | 54.03148 | 24847 ft | 497 kts | 110° |
| 2026-04-25 00:10 | 25.73753 | 54.06770 | 24849 ft | 497 kts | 110° |
| 2026-04-25 00:10 | 25.72637 | 54.10403 | 24852 ft | 497 kts | 110° |
| 2026-04-25 00:10 | 25.71521 | 54.14034 | 24847 ft | 496 kts | 110° |
| 2026-04-25 00:10 | 25.70401 | 54.17673 | 24848 ft | 503 kts | 110° |
| 2026-04-25 00:11 | 25.69290 | 54.21304 | 24562 ft | 491 kts | 110° |
| 2026-04-25 00:11 | 25.68194 | 54.24884 | 23619 ft | 491 kts | 110° |
| 2026-04-25 00:11 | 25.67089 | 54.28470 | 22604 ft | 491 kts | 110° |
| 2026-04-25 00:11 | 25.65984 | 54.32049 | 21910 ft | 487 kts | 110° |
| 2026-04-25 00:12 | 25.64902 | 54.35538 | 21300 ft | 481 kts | 110° |
| 2026-04-25 00:12 | 25.63821 | 54.39021 | 20693 ft | 475 kts | 110° |
| 2026-04-25 00:12 | 25.62750 | 54.42459 | 19999 ft | 471 kts | 110° |
| 2026-04-25 00:12 | 25.61685 | 54.45883 | 19353 ft | 466 kts | 110° |
| 2026-04-25 00:13 | 25.60627 | 54.49263 | 18684 ft | 462 kts | 110° |
| 2026-04-25 00:13 | 25.59583 | 54.52599 | 17964 ft | 455 kts | 110° |
| 2026-04-25 00:13 | 25.58600 | 54.55919 | 17205 ft | 452 kts | 106° |
| 2026-04-25 00:13 | 25.58077 | 54.59325 | 16582 ft | 448 kts | 94° |
| 2026-04-25 00:14 | 25.58171 | 54.62761 | 16019 ft | 447 kts | 85° |
| 2026-04-25 00:14 | 25.58121 | 54.66195 | 15463 ft | 446 kts | 97° |
| 2026-04-25 00:14 | 25.57396 | 54.69524 | 14919 ft | 443 kts | 111° |
| 2026-04-25 00:14 | 25.56099 | 54.72602 | 14396 ft | 440 kts | 119° |
| 2026-04-25 00:15 | 25.54607 | 54.75512 | 13866 ft | 438 kts | 122° |
| 2026-04-25 00:15 | 25.53058 | 54.78402 | 13282 ft | 434 kts | 122° |
| 2026-04-25 00:15 | 25.51510 | 54.81254 | 12549 ft | 429 kts | 122° |
| 2026-04-25 00:15 | 25.49977 | 54.84067 | 11758 ft | 426 kts | 122° |
| 2026-04-25 00:16 | 25.48444 | 54.86874 | 10975 ft | 424 kts | 122° |
| 2026-04-25 00:16 | 25.46917 | 54.89665 | 10397 ft | 421 kts | 122° |
| 2026-04-25 00:16 | 25.45399 | 54.92435 | 10128 ft | 420 kts | 122° |
| 2026-04-25 00:16 | 25.43908 | 54.95154 | 10024 ft | 402 kts | 122° |
| 2026-04-25 00:17 | 25.42501 | 54.97726 | 9987 ft | 379 kts | 122° |
| 2026-04-25 00:17 | 25.41193 | 55.00122 | 9926 ft | 359 kts | 122° |
| 2026-04-25 00:17 | 25.39930 | 55.02439 | 9792 ft | 344 kts | 122° |
| 2026-04-25 00:17 | 25.38718 | 55.04665 | 9641 ft | 330 kts | 122° |
| 2026-04-25 00:18 | 25.37555 | 55.06797 | 9385 ft | 316 kts | 124° |
| 2026-04-25 00:18 | 25.36345 | 55.08772 | 9084 ft | 304 kts | 127° |
| 2026-04-25 00:18 | 25.35124 | 55.10663 | 8701 ft | 300 kts | 127° |
| 2026-04-25 00:18 | 25.33925 | 55.12504 | 8303 ft | 298 kts | 127° |
| 2026-04-25 00:19 | 25.32698 | 55.14383 | 7894 ft | 297 kts | 127° |
| 2026-04-25 00:19 | 25.31508 | 55.16203 | 7513 ft | 295 kts | 127° |
| 2026-04-25 00:19 | 25.30307 | 55.18037 | 7116 ft | 294 kts | 127° |
| 2026-04-25 00:19 | 25.29107 | 55.19866 | 6737 ft | 292 kts | 127° |
| 2026-04-25 00:20 | 25.27916 | 55.21678 | 6360 ft | 291 kts | 127° |
| 2026-04-25 00:20 | 25.26729 | 55.23481 | 5965 ft | 289 kts | 127° |
| 2026-04-25 00:20 | 25.25540 | 55.25278 | 5574 ft | 288 kts | 127° |
| 2026-04-25 00:20 | 25.24356 | 55.27053 | 5194 ft | 286 kts | 127° |
| 2026-04-25 00:21 | 25.23188 | 55.28787 | 4815 ft | 284 kts | 127° |
| 2026-04-25 00:21 | 25.22003 | 55.30535 | 4455 ft | 283 kts | 127° |
| 2026-04-25 00:21 | 25.20823 | 55.32261 | 4069 ft | 281 kts | 127° |
| 2026-04-25 00:21 | 25.19639 | 55.33978 | 3706 ft | 279 kts | 127° |
| 2026-04-25 00:22 | 25.18460 | 55.35675 | 3347 ft | 278 kts | 127° |
| 2026-04-25 00:22 | 25.17282 | 55.37357 | 3046 ft | 276 kts | 127° |
| 2026-04-25 00:22 | 25.16103 | 55.39032 | 2984 ft | 276 kts | 127° |
| 2026-04-25 00:22 | 25.14920 | 55.40713 | 2982 ft | 277 kts | 127° |
| 2026-04-25 00:23 | 25.13741 | 55.42387 | 2993 ft | 276 kts | 127° |
| 2026-04-25 00:23 | 25.12565 | 55.44064 | 3002 ft | 276 kts | 126° |
| 2026-04-25 00:23 | 25.11492 | 55.45794 | 3008 ft | 276 kts | 122° |
| 2026-04-25 00:23 | 25.10441 | 55.47569 | 3011 ft | 276 kts | 122° |
| 2026-04-25 00:24 | 25.09396 | 55.49345 | 3014 ft | 276 kts | 122° |
| 2026-04-25 00:24 | 25.08444 | 55.51173 | 3006 ft | 274 kts | 109° |
| 2026-04-25 00:24 | 25.08170 | 55.53230 | 3012 ft | 270 kts | 84° |
| 2026-04-25 00:24 | 25.08658 | 55.55183 | 2669 ft | 264 kts | 60° |
| 2026-04-25 00:25 | 25.09844 | 55.56691 | 2271 ft | 261 kts | 34° |
| 2026-04-25 00:25 | 25.11504 | 55.57363 | 2044 ft | 251 kts | 1° |
| 2026-04-25 00:25 | 25.13131 | 55.56972 | 2001 ft | 233 kts | 333° |
| 2026-04-25 00:25 | 25.14370 | 55.55937 | 1992 ft | 214 kts | 313° |
| 2026-04-25 00:26 | 25.15224 | 55.54704 | 2016 ft | 189 kts | 303° |
| 2026-04-25 00:26 | 25.15836 | 55.53514 | 2028 ft | 169 kts | 302° |
| 2026-04-25 00:26 | 25.16436 | 55.52420 | 2016 ft | 166 kts | 302° |
| 2026-04-25 00:26 | 25.17030 | 55.51344 | 2004 ft | 166 kts | 302° |
| 2026-04-25 00:27 | 25.17630 | 55.50258 | 2048 ft | 166 kts | 303° |
| 2026-04-25 00:27 | 25.18234 | 55.49166 | 1990 ft | 166 kts | 303° |
| 2026-04-25 00:27 | 25.18833 | 55.48083 | 1806 ft | 166 kts | 303° |
| 2026-04-25 00:27 | 25.19433 | 55.46998 | 1610 ft | 165 kts | 302° |
| 2026-04-25 00:28 | 25.20024 | 55.45931 | 1376 ft | 165 kts | 302° |
| 2026-04-25 00:28 | 25.20631 | 55.44834 | 1156 ft | 164 kts | 302° |
| 2026-04-25 00:28 | 25.21228 | 55.43754 | 944 ft | 165 kts | 302° |
| 2026-04-25 00:28 | 25.21817 | 55.42689 | 747 ft | 166 kts | 302° |
| 2026-04-25 00:29 | 25.22390 | 55.41652 | 528 ft | 144 kts | 301° |
| 2026-04-25 00:29 | 25.22906 | 55.40720 | 345 ft | 142 kts | 301° |
| 2026-04-25 00:29 | 25.23417 | 55.39790 | 162 ft | 141 kts | 301° |
| 2026-04-25 00:29 | 25.23932 | 55.38881 | 33 ft | 135 kts | 302° |
| 2026-04-25 00:30 | 25.24361 | 55.38102 | 18 ft | 101 kts | 301° |
| 2026-04-25 00:30 | 25.24562 | 55.37740 | 17 ft | 40 kts | 301° |
| 2026-04-25 00:30 | 25.24704 | 55.37469 | 16 ft | 41 kts | 299° |
| 2026-04-25 00:30 | 25.24773 | 55.37298 | 15 ft | 24 kts | 284° |
| 2026-04-25 00:31 | 25.24785 | 55.37131 | 15 ft | 16 kts | 270° |
| 2026-04-25 00:31 | 25.24787 | 55.37001 | 15 ft | 18 kts | 271° |
| 2026-04-25 00:31 | 25.24791 | 55.36953 | 15 ft | 0 kts | 281° |
| 2026-04-25 00:31 | 25.24803 | 55.36932 | 15 ft | 7 kts | 305° |
| 2026-04-25 00:32 | 25.24832 | 55.36880 | 15 ft | 9 kts | 295° |
| 2026-04-25 00:32 | 25.24852 | 55.36805 | 16 ft | 11 kts | 283° |
| 2026-04-25 00:32 | 25.24874 | 55.36711 | 15 ft | 14 kts | 288° |
| 2026-04-25 00:32 | 25.24902 | 55.36644 | 15 ft | 15 kts | 299° |
| 2026-04-25 00:33 | 25.24981 | 55.36502 | 15 ft | 18 kts | 301° |
| 2026-04-25 00:33 | 25.25049 | 55.36379 | 15 ft | 20 kts | 301° |
| 2026-04-25 00:33 | 25.25121 | 55.36245 | 15 ft | 21 kts | 301° |
| 2026-04-25 00:33 | 25.25201 | 55.36099 | 16 ft | 23 kts | 301° |
| 2026-04-25 00:34 | 25.25287 | 55.35944 | 15 ft | 25 kts | 302° |
| 2026-04-25 00:34 | 25.25381 | 55.35777 | 15 ft | 26 kts | 302° |
| 2026-04-25 00:34 | 25.25480 | 55.35600 | 15 ft | 28 kts | 301° |
| 2026-04-25 00:34 | 25.25585 | 55.35412 | 15 ft | 30 kts | 301° |
| 2026-04-25 00:35 | 25.25686 | 55.35228 | 15 ft | 25 kts | 301° |
| 2026-04-25 00:35 | 25.25762 | 55.35080 | 15 ft | 23 kts | 285° |
| 2026-04-25 00:35 | 25.25671 | 55.34946 | 16 ft | 22 kts | 216° |
| 2026-04-25 00:35 | 25.25591 | 55.34897 | 17 ft | 2 kts | 210° |
| 2026-04-25 00:36 | 25.25569 | 55.34883 | 15 ft | 5 kts | 212° |
| 2026-04-25 00:36 | 25.25557 | 55.34842 | 15 ft | 7 kts | 282° |
| 2026-04-25 00:36 | 25.25580 | 55.34789 | 16 ft | 3 kts | 302° |
| 2026-04-25 00:36 | 25.25588 | 55.34775 | 15 ft | 0 kts | 301° |